sensor_id;sensor_type;location;lat;lon;timestamp;P1;durP1;ratioP1;P2;durP2;ratioP2
79646;SDS011;69119;41.718;21.786;2023-07-31T00:03:08;6.30;;;3.22;;
79646;SDS011;69119;41.718;21.786;2023-07-31T00:05:35;5.90;;;3.00;;
79646;SDS011;69119;41.718;21.786;2023-07-31T00:10:27;5.70;;;2.70;;
79646;SDS011;69119;41.718;21.786;2023-07-31T00:15:19;7.18;;;3.55;;
79646;SDS011;69119;41.718;21.786;2023-07-31T00:20:11;6.18;;;3.45;;
79646;SDS011;69119;41.718;21.786;2023-07-31T00:25:03;6.75;;;2.47;;
79646;SDS011;69119;41.718;21.786;2023-07-31T00:27:31;6.63;;;3.78;;
79646;SDS011;69119;41.718;21.786;2023-07-31T00:29:57;6.97;;;3.42;;
79646;SDS011;69119;41.718;21.786;2023-07-31T00:34:49;6.95;;;3.65;;
79646;SDS011;69119;41.718;21.786;2023-07-31T00:39:41;7.47;;;3.80;;
79646;SDS011;69119;41.718;21.786;2023-07-31T00:44:33;7.03;;;3.42;;
79646;SDS011;69119;41.718;21.786;2023-07-31T00:46:59;6.38;;;3.20;;
79646;SDS011;69119;41.718;21.786;2023-07-31T00:49:26;6.55;;;3.67;;
79646;SDS011;69119;41.718;21.786;2023-07-31T00:54:18;5.88;;;3.45;;
79646;SDS011;69119;41.718;21.786;2023-07-31T00:56:47;6.75;;;3.55;;
79646;SDS011;69119;41.718;21.786;2023-07-31T00:59:13;7.30;;;3.50;;
79646;SDS011;69119;41.718;21.786;2023-07-31T01:01:39;5.90;;;3.33;;
79646;SDS011;69119;41.718;21.786;2023-07-31T01:06:44;7.05;;;3.80;;
79646;SDS011;69119;41.718;21.786;2023-07-31T01:14:11;7.80;;;4.07;;
79646;SDS011;69119;41.718;21.786;2023-07-31T01:16:37;6.70;;;4.07;;
79646;SDS011;69119;41.718;21.786;2023-07-31T01:19:03;8.73;;;3.92;;
79646;SDS011;69119;41.718;21.786;2023-07-31T01:21:35;6.25;;;3.85;;
79646;SDS011;69119;41.718;21.786;2023-07-31T01:24:21;7.85;;;4.03;;
79646;SDS011;69119;41.718;21.786;2023-07-31T01:26:58;7.03;;;4.57;;
79646;SDS011;69119;41.718;21.786;2023-07-31T01:29:38;6.30;;;3.15;;
79646;SDS011;69119;41.718;21.786;2023-07-31T01:32:07;8.93;;;4.30;;
79646;SDS011;69119;41.718;21.786;2023-07-31T01:34:34;8.15;;;4.30;;
79646;SDS011;69119;41.718;21.786;2023-07-31T01:37:01;8.32;;;4.93;;
79646;SDS011;69119;41.718;21.786;2023-07-31T01:39:28;7.18;;;4.57;;
79646;SDS011;69119;41.718;21.786;2023-07-31T01:41:54;8.63;;;5.25;;
79646;SDS011;69119;41.718;21.786;2023-07-31T01:46:46;7.60;;;3.83;;
79646;SDS011;69119;41.718;21.786;2023-07-31T01:49:12;8.05;;;3.40;;
79646;SDS011;69119;41.718;21.786;2023-07-31T01:51:38;8.18;;;4.45;;
79646;SDS011;69119;41.718;21.786;2023-07-31T01:56:31;8.30;;;5.10;;
79646;SDS011;69119;41.718;21.786;2023-07-31T01:58:57;8.02;;;5.20;;
79646;SDS011;69119;41.718;21.786;2023-07-31T02:01:23;8.35;;;5.53;;
79646;SDS011;69119;41.718;21.786;2023-07-31T02:03:49;7.25;;;5.38;;
79646;SDS011;69119;41.718;21.786;2023-07-31T02:06:15;8.70;;;5.72;;
79646;SDS011;69119;41.718;21.786;2023-07-31T02:08:41;9.27;;;4.82;;
79646;SDS011;69119;41.718;21.786;2023-07-31T02:11:07;7.90;;;5.78;;
79646;SDS011;69119;41.718;21.786;2023-07-31T02:13:33;7.63;;;5.07;;
79646;SDS011;69119;41.718;21.786;2023-07-31T02:15:59;6.78;;;4.53;;
79646;SDS011;69119;41.718;21.786;2023-07-31T02:18:26;9.20;;;6.55;;
79646;SDS011;69119;41.718;21.786;2023-07-31T02:20:52;7.97;;;5.68;;
79646;SDS011;69119;41.718;21.786;2023-07-31T02:25:44;9.77;;;6.70;;
79646;SDS011;69119;41.718;21.786;2023-07-31T02:28:10;10.57;;;7.80;;
79646;SDS011;69119;41.718;21.786;2023-07-31T02:30:37;11.65;;;10.25;;
79646;SDS011;69119;41.718;21.786;2023-07-31T02:33:03;12.48;;;9.38;;
79646;SDS011;69119;41.718;21.786;2023-07-31T02:35:30;12.27;;;10.70;;
79646;SDS011;69119;41.718;21.786;2023-07-31T02:40:22;12.68;;;9.43;;
79646;SDS011;69119;41.718;21.786;2023-07-31T02:42:48;14.68;;;12.93;;
79646;SDS011;69119;41.718;21.786;2023-07-31T02:45:14;14.25;;;12.32;;
79646;SDS011;69119;41.718;21.786;2023-07-31T02:52:35;15.23;;;11.02;;
79646;SDS011;69119;41.718;21.786;2023-07-31T02:55:01;13.82;;;11.55;;
79646;SDS011;69119;41.718;21.786;2023-07-31T02:59:53;12.02;;;10.13;;
79646;SDS011;69119;41.718;21.786;2023-07-31T03:04:45;11.63;;;9.80;;
79646;SDS011;69119;41.718;21.786;2023-07-31T03:07:11;12.27;;;10.55;;
79646;SDS011;69119;41.718;21.786;2023-07-31T03:09:37;11.95;;;9.93;;
79646;SDS011;69119;41.718;21.786;2023-07-31T03:12:03;10.88;;;7.22;;
79646;SDS011;69119;41.718;21.786;2023-07-31T03:14:29;15.50;;;11.00;;
79646;SDS011;69119;41.718;21.786;2023-07-31T03:19:22;11.40;;;9.85;;
79646;SDS011;69119;41.718;21.786;2023-07-31T03:24:13;12.50;;;10.70;;
79646;SDS011;69119;41.718;21.786;2023-07-31T03:26:40;12.45;;;10.80;;
79646;SDS011;69119;41.718;21.786;2023-07-31T03:29:08;11.30;;;9.77;;
79646;SDS011;69119;41.718;21.786;2023-07-31T03:31:34;13.43;;;9.10;;
79646;SDS011;69119;41.718;21.786;2023-07-31T03:34:00;13.75;;;11.43;;
79646;SDS011;69119;41.718;21.786;2023-07-31T03:36:26;12.65;;;10.88;;
79646;SDS011;69119;41.718;21.786;2023-07-31T03:38:53;12.43;;;10.40;;
79646;SDS011;69119;41.718;21.786;2023-07-31T03:41:19;12.18;;;10.48;;
79646;SDS011;69119;41.718;21.786;2023-07-31T03:46:11;12.32;;;10.63;;
79646;SDS011;69119;41.718;21.786;2023-07-31T03:51:03;12.73;;;10.60;;
79646;SDS011;69119;41.718;21.786;2023-07-31T03:53:29;15.98;;;11.73;;
79646;SDS011;69119;41.718;21.786;2023-07-31T03:55:55;13.02;;;10.57;;
79646;SDS011;69119;41.718;21.786;2023-07-31T03:58:21;13.63;;;11.73;;
79646;SDS011;69119;41.718;21.786;2023-07-31T04:00:47;12.82;;;10.63;;
79646;SDS011;69119;41.718;21.786;2023-07-31T04:03:13;11.82;;;10.32;;
79646;SDS011;69119;41.718;21.786;2023-07-31T04:05:39;13.00;;;11.05;;
79646;SDS011;69119;41.718;21.786;2023-07-31T04:10:31;11.57;;;10.15;;
79646;SDS011;69119;41.718;21.786;2023-07-31T04:12:58;14.38;;;10.30;;
79646;SDS011;69119;41.718;21.786;2023-07-31T04:15:25;12.80;;;9.45;;
79646;SDS011;69119;41.718;21.786;2023-07-31T04:17:51;12.57;;;10.18;;
79646;SDS011;69119;41.718;21.786;2023-07-31T04:20:18;12.00;;;9.95;;
79646;SDS011;69119;41.718;21.786;2023-07-31T04:22:44;13.25;;;11.02;;
79646;SDS011;69119;41.718;21.786;2023-07-31T04:25:10;12.05;;;8.70;;
79646;SDS011;69119;41.718;21.786;2023-07-31T04:30:02;12.25;;;9.27;;
79646;SDS011;69119;41.718;21.786;2023-07-31T04:32:28;10.20;;;7.68;;
79646;SDS011;69119;41.718;21.786;2023-07-31T04:34:54;12.02;;;9.75;;
79646;SDS011;69119;41.718;21.786;2023-07-31T04:39:46;8.40;;;5.60;;
79646;SDS011;69119;41.718;21.786;2023-07-31T04:42:12;10.93;;;8.23;;
79646;SDS011;69119;41.718;21.786;2023-07-31T04:44:39;10.32;;;6.57;;
79646;SDS011;69119;41.718;21.786;2023-07-31T04:49:31;10.73;;;8.10;;
79646;SDS011;69119;41.718;21.786;2023-07-31T04:51:58;12.27;;;8.60;;
79646;SDS011;69119;41.718;21.786;2023-07-31T04:54:24;10.65;;;8.32;;
79646;SDS011;69119;41.718;21.786;2023-07-31T04:59:17;9.60;;;6.65;;
79646;SDS011;69119;41.718;21.786;2023-07-31T05:04:12;9.70;;;8.25;;
79646;SDS011;69119;41.718;21.786;2023-07-31T05:06:39;9.00;;;7.43;;
79646;SDS011;69119;41.718;21.786;2023-07-31T05:11:31;10.63;;;8.77;;
79646;SDS011;69119;41.718;21.786;2023-07-31T05:13:57;8.75;;;6.45;;
79646;SDS011;69119;41.718;21.786;2023-07-31T05:18:49;10.75;;;7.75;;
79646;SDS011;69119;41.718;21.786;2023-07-31T05:21:15;10.15;;;8.13;;
79646;SDS011;69119;41.718;21.786;2023-07-31T05:26:07;8.63;;;5.53;;
79646;SDS011;69119;41.718;21.786;2023-07-31T05:28:35;8.60;;;5.93;;
79646;SDS011;69119;41.718;21.786;2023-07-31T05:31:01;9.65;;;5.28;;
79646;SDS011;69119;41.718;21.786;2023-07-31T05:33:28;8.30;;;4.88;;
79646;SDS011;69119;41.718;21.786;2023-07-31T05:38:20;8.13;;;4.55;;
79646;SDS011;69119;41.718;21.786;2023-07-31T05:40:46;9.07;;;4.88;;
79646;SDS011;69119;41.718;21.786;2023-07-31T05:43:13;8.68;;;5.65;;
79646;SDS011;69119;41.718;21.786;2023-07-31T05:45:39;9.10;;;6.43;;
79646;SDS011;69119;41.718;21.786;2023-07-31T05:50:31;10.20;;;6.55;;
79646;SDS011;69119;41.718;21.786;2023-07-31T05:55:24;9.07;;;6.72;;
79646;SDS011;69119;41.718;21.786;2023-07-31T05:57:52;9.82;;;6.93;;
79646;SDS011;69119;41.718;21.786;2023-07-31T06:00:18;10.02;;;7.38;;
79646;SDS011;69119;41.718;21.786;2023-07-31T06:02:45;8.77;;;6.45;;
79646;SDS011;69119;41.718;21.786;2023-07-31T06:05:12;9.65;;;7.72;;
79646;SDS011;69119;41.718;21.786;2023-07-31T06:07:38;7.97;;;4.72;;
79646;SDS011;69119;41.718;21.786;2023-07-31T06:10:04;8.77;;;5.85;;
79646;SDS011;69119;41.718;21.786;2023-07-31T06:12:33;9.57;;;6.07;;
79646;SDS011;69119;41.718;21.786;2023-07-31T06:14:59;8.35;;;5.80;;
79646;SDS011;69119;41.718;21.786;2023-07-31T06:17:25;10.98;;;7.10;;
79646;SDS011;69119;41.718;21.786;2023-07-31T06:19:53;11.73;;;7.68;;
79646;SDS011;69119;41.718;21.786;2023-07-31T06:22:19;11.85;;;9.27;;
79646;SDS011;69119;41.718;21.786;2023-07-31T06:24:46;7.88;;;4.10;;
79646;SDS011;69119;41.718;21.786;2023-07-31T06:27:12;11.55;;;7.97;;
79646;SDS011;69119;41.718;21.786;2023-07-31T06:29:38;8.35;;;5.93;;
79646;SDS011;69119;41.718;21.786;2023-07-31T06:32:04;10.25;;;7.80;;
79646;SDS011;69119;41.718;21.786;2023-07-31T06:34:30;11.35;;;7.78;;
79646;SDS011;69119;41.718;21.786;2023-07-31T06:36:56;9.48;;;5.75;;
79646;SDS011;69119;41.718;21.786;2023-07-31T06:39:22;14.90;;;6.35;;
79646;SDS011;69119;41.718;21.786;2023-07-31T06:41:48;9.70;;;7.18;;
79646;SDS011;69119;41.718;21.786;2023-07-31T06:44:14;10.50;;;7.22;;
79646;SDS011;69119;41.718;21.786;2023-07-31T06:49:06;11.13;;;5.68;;
79646;SDS011;69119;41.718;21.786;2023-07-31T06:51:32;9.50;;;6.43;;
79646;SDS011;69119;41.718;21.786;2023-07-31T06:53:58;8.85;;;6.05;;
79646;SDS011;69119;41.718;21.786;2023-07-31T06:58:51;10.43;;;8.18;;
79646;SDS011;69119;41.718;21.786;2023-07-31T07:03:43;14.02;;;9.10;;
79646;SDS011;69119;41.718;21.786;2023-07-31T07:06:09;10.15;;;6.57;;
79646;SDS011;69119;41.718;21.786;2023-07-31T07:08:35;10.55;;;9.18;;
79646;SDS011;69119;41.718;21.786;2023-07-31T07:11:01;10.85;;;8.10;;
79646;SDS011;69119;41.718;21.786;2023-07-31T07:13:27;7.18;;;3.75;;
79646;SDS011;69119;41.718;21.786;2023-07-31T07:15:53;10.27;;;8.98;;
79646;SDS011;69119;41.718;21.786;2023-07-31T07:18:19;10.30;;;8.38;;
79646;SDS011;69119;41.718;21.786;2023-07-31T07:20:49;10.55;;;8.30;;
79646;SDS011;69119;41.718;21.786;2023-07-31T07:23:15;11.52;;;7.70;;
79646;SDS011;69119;41.718;21.786;2023-07-31T07:25:42;9.60;;;6.97;;
79646;SDS011;69119;41.718;21.786;2023-07-31T07:28:08;11.68;;;9.38;;
79646;SDS011;69119;41.718;21.786;2023-07-31T07:30:34;15.23;;;13.50;;
79646;SDS011;69119;41.718;21.786;2023-07-31T07:33:01;12.57;;;9.82;;
79646;SDS011;69119;41.718;21.786;2023-07-31T07:35:27;11.40;;;9.95;;
79646;SDS011;69119;41.718;21.786;2023-07-31T07:37:53;14.30;;;10.95;;
79646;SDS011;69119;41.718;21.786;2023-07-31T07:40:20;12.88;;;11.57;;
79646;SDS011;69119;41.718;21.786;2023-07-31T07:42:46;8.45;;;6.00;;
79646;SDS011;69119;41.718;21.786;2023-07-31T07:45:12;13.18;;;7.90;;
79646;SDS011;69119;41.718;21.786;2023-07-31T07:47:40;11.48;;;10.02;;
79646;SDS011;69119;41.718;21.786;2023-07-31T07:50:07;11.57;;;8.82;;
79646;SDS011;69119;41.718;21.786;2023-07-31T07:52:33;16.73;;;10.77;;
79646;SDS011;69119;41.718;21.786;2023-07-31T07:54:59;13.13;;;8.43;;
79646;SDS011;69119;41.718;21.786;2023-07-31T07:57:26;9.38;;;5.95;;
79646;SDS011;69119;41.718;21.786;2023-07-31T07:59:52;11.20;;;9.00;;
79646;SDS011;69119;41.718;21.786;2023-07-31T08:02:18;10.43;;;7.72;;
79646;SDS011;69119;41.718;21.786;2023-07-31T08:04:44;11.98;;;10.52;;
79646;SDS011;69119;41.718;21.786;2023-07-31T08:07:13;13.15;;;10.52;;
79646;SDS011;69119;41.718;21.786;2023-07-31T08:09:39;10.57;;;8.88;;
79646;SDS011;69119;41.718;21.786;2023-07-31T08:12:05;10.63;;;9.52;;
79646;SDS011;69119;41.718;21.786;2023-07-31T08:14:31;7.70;;;5.15;;
79646;SDS011;69119;41.718;21.786;2023-07-31T08:16:57;11.30;;;8.77;;
79646;SDS011;69119;41.718;21.786;2023-07-31T08:19:24;12.18;;;8.45;;
79646;SDS011;69119;41.718;21.786;2023-07-31T08:21:50;11.40;;;7.43;;
79646;SDS011;69119;41.718;21.786;2023-07-31T08:24:16;14.80;;;12.00;;
79646;SDS011;69119;41.718;21.786;2023-07-31T08:26:42;13.90;;;10.32;;
79646;SDS011;69119;41.718;21.786;2023-07-31T08:29:08;11.02;;;8.27;;
79646;SDS011;69119;41.718;21.786;2023-07-31T08:31:34;10.93;;;8.70;;
79646;SDS011;69119;41.718;21.786;2023-07-31T08:34:00;10.52;;;8.88;;
79646;SDS011;69119;41.718;21.786;2023-07-31T08:36:27;10.27;;;9.18;;
79646;SDS011;69119;41.718;21.786;2023-07-31T08:38:53;10.57;;;8.27;;
79646;SDS011;69119;41.718;21.786;2023-07-31T08:41:20;10.15;;;8.20;;
79646;SDS011;69119;41.718;21.786;2023-07-31T08:43:46;9.07;;;6.85;;
79646;SDS011;69119;41.718;21.786;2023-07-31T08:46:12;11.18;;;8.32;;
79646;SDS011;69119;41.718;21.786;2023-07-31T08:48:40;10.75;;;9.00;;
79646;SDS011;69119;41.718;21.786;2023-07-31T08:51:06;11.55;;;9.13;;
79646;SDS011;69119;41.718;21.786;2023-07-31T08:53:32;10.88;;;6.55;;
79646;SDS011;69119;41.718;21.786;2023-07-31T08:55:58;9.32;;;8.23;;
79646;SDS011;69119;41.718;21.786;2023-07-31T08:58:25;9.48;;;6.40;;
79646;SDS011;69119;41.718;21.786;2023-07-31T09:00:51;9.23;;;7.35;;
79646;SDS011;69119;41.718;21.786;2023-07-31T09:03:18;9.48;;;8.38;;
79646;SDS011;69119;41.718;21.786;2023-07-31T09:05:45;9.95;;;8.38;;
79646;SDS011;69119;41.718;21.786;2023-07-31T09:08:12;9.30;;;6.70;;
79646;SDS011;69119;41.718;21.786;2023-07-31T09:10:42;10.80;;;9.65;;
79646;SDS011;69119;41.718;21.786;2023-07-31T09:13:09;9.38;;;6.63;;
79646;SDS011;69119;41.718;21.786;2023-07-31T09:15:36;9.90;;;8.13;;
79646;SDS011;69119;41.718;21.786;2023-07-31T09:18:03;8.73;;;6.75;;
79646;SDS011;69119;41.718;21.786;2023-07-31T09:20:30;10.55;;;8.38;;
79646;SDS011;69119;41.718;21.786;2023-07-31T09:22:57;11.45;;;9.02;;
79646;SDS011;69119;41.718;21.786;2023-07-31T09:25:30;10.40;;;6.78;;
79646;SDS011;69119;41.718;21.786;2023-07-31T09:27:58;8.40;;;5.75;;
79646;SDS011;69119;41.718;21.786;2023-07-31T09:30:24;10.40;;;8.73;;
79646;SDS011;69119;41.718;21.786;2023-07-31T09:32:50;8.48;;;6.82;;
79646;SDS011;69119;41.718;21.786;2023-07-31T09:35:21;11.18;;;9.40;;
79646;SDS011;69119;41.718;21.786;2023-07-31T09:37:51;9.15;;;7.00;;
79646;SDS011;69119;41.718;21.786;2023-07-31T09:40:26;9.38;;;6.35;;
79646;SDS011;69119;41.718;21.786;2023-07-31T09:42:53;8.45;;;6.97;;
79646;SDS011;69119;41.718;21.786;2023-07-31T09:45:19;10.27;;;7.93;;
79646;SDS011;69119;41.718;21.786;2023-07-31T09:47:46;11.23;;;7.50;;
79646;SDS011;69119;41.718;21.786;2023-07-31T09:50:13;6.53;;;3.83;;
79646;SDS011;69119;41.718;21.786;2023-07-31T09:52:40;8.52;;;5.78;;
79646;SDS011;69119;41.718;21.786;2023-07-31T09:55:07;7.35;;;4.65;;
79646;SDS011;69119;41.718;21.786;2023-07-31T09:57:33;9.63;;;5.32;;
79646;SDS011;69119;41.718;21.786;2023-07-31T09:59:59;7.18;;;5.20;;
79646;SDS011;69119;41.718;21.786;2023-07-31T10:02:26;7.95;;;5.93;;
79646;SDS011;69119;41.718;21.786;2023-07-31T10:04:53;7.18;;;4.68;;
79646;SDS011;69119;41.718;21.786;2023-07-31T10:07:25;6.43;;;3.97;;
79646;SDS011;69119;41.718;21.786;2023-07-31T10:09:53;7.10;;;4.50;;
79646;SDS011;69119;41.718;21.786;2023-07-31T10:12:19;6.55;;;4.22;;
79646;SDS011;69119;41.718;21.786;2023-07-31T10:14:48;8.20;;;5.72;;
79646;SDS011;69119;41.718;21.786;2023-07-31T10:17:14;8.27;;;6.60;;
79646;SDS011;69119;41.718;21.786;2023-07-31T10:19:41;7.05;;;4.30;;
79646;SDS011;69119;41.718;21.786;2023-07-31T10:22:07;7.75;;;4.80;;
79646;SDS011;69119;41.718;21.786;2023-07-31T10:24:34;6.93;;;4.35;;
79646;SDS011;69119;41.718;21.786;2023-07-31T10:27:00;6.82;;;5.35;;
79646;SDS011;69119;41.718;21.786;2023-07-31T10:29:28;7.60;;;4.78;;
79646;SDS011;69119;41.718;21.786;2023-07-31T10:31:55;6.65;;;4.05;;
79646;SDS011;69119;41.718;21.786;2023-07-31T10:34:22;6.97;;;4.65;;
79646;SDS011;69119;41.718;21.786;2023-07-31T10:36:48;6.90;;;4.20;;
79646;SDS011;69119;41.718;21.786;2023-07-31T10:39:33;7.32;;;4.72;;
79646;SDS011;69119;41.718;21.786;2023-07-31T10:42:09;8.18;;;4.97;;
79646;SDS011;69119;41.718;21.786;2023-07-31T10:44:35;9.27;;;6.45;;
79646;SDS011;69119;41.718;21.786;2023-07-31T10:47:01;8.63;;;5.97;;
79646;SDS011;69119;41.718;21.786;2023-07-31T10:49:27;7.10;;;4.35;;
79646;SDS011;69119;41.718;21.786;2023-07-31T10:51:56;5.88;;;2.85;;
79646;SDS011;69119;41.718;21.786;2023-07-31T10:54:22;10.43;;;3.58;;
79646;SDS011;69119;41.718;21.786;2023-07-31T10:56:51;9.95;;;5.53;;
79646;SDS011;69119;41.718;21.786;2023-07-31T10:59:18;7.93;;;4.78;;
79646;SDS011;69119;41.718;21.786;2023-07-31T11:01:55;7.10;;;4.63;;
79646;SDS011;69119;41.718;21.786;2023-07-31T11:04:27;7.13;;;4.57;;
79646;SDS011;69119;41.718;21.786;2023-07-31T11:06:56;6.20;;;3.83;;
79646;SDS011;69119;41.718;21.786;2023-07-31T11:09:24;7.20;;;4.50;;
79646;SDS011;69119;41.718;21.786;2023-07-31T11:11:50;10.68;;;4.32;;
79646;SDS011;69119;41.718;21.786;2023-07-31T11:14:17;6.57;;;3.58;;
79646;SDS011;69119;41.718;21.786;2023-07-31T11:16:43;6.55;;;4.05;;
79646;SDS011;69119;41.718;21.786;2023-07-31T11:19:09;5.75;;;2.95;;
79646;SDS011;69119;41.718;21.786;2023-07-31T11:21:35;6.82;;;3.45;;
79646;SDS011;69119;41.718;21.786;2023-07-31T11:24:02;6.65;;;3.70;;
79646;SDS011;69119;41.718;21.786;2023-07-31T11:26:28;6.90;;;4.63;;
79646;SDS011;69119;41.718;21.786;2023-07-31T11:28:55;7.30;;;3.35;;
79646;SDS011;69119;41.718;21.786;2023-07-31T11:31:22;5.70;;;3.22;;
79646;SDS011;69119;41.718;21.786;2023-07-31T11:33:48;7.65;;;4.80;;
79646;SDS011;69119;41.718;21.786;2023-07-31T11:36:18;6.32;;;3.22;;
79646;SDS011;69119;41.718;21.786;2023-07-31T11:38:44;5.95;;;3.88;;
79646;SDS011;69119;41.718;21.786;2023-07-31T11:41:10;6.30;;;3.50;;
79646;SDS011;69119;41.718;21.786;2023-07-31T11:43:36;6.43;;;3.92;;
79646;SDS011;69119;41.718;21.786;2023-07-31T11:46:02;8.18;;;4.30;;
79646;SDS011;69119;41.718;21.786;2023-07-31T11:48:29;6.80;;;3.25;;
79646;SDS011;69119;41.718;21.786;2023-07-31T11:51:05;6.45;;;3.30;;
79646;SDS011;69119;41.718;21.786;2023-07-31T11:53:33;5.88;;;3.92;;
79646;SDS011;69119;41.718;21.786;2023-07-31T11:56:01;5.53;;;2.90;;
79646;SDS011;69119;41.718;21.786;2023-07-31T11:58:30;5.53;;;3.38;;
79646;SDS011;69119;41.718;21.786;2023-07-31T12:00:56;5.85;;;3.15;;
79646;SDS011;69119;41.718;21.786;2023-07-31T12:03:23;7.07;;;3.42;;
79646;SDS011;69119;41.718;21.786;2023-07-31T12:05:49;5.03;;;1.83;;
79646;SDS011;69119;41.718;21.786;2023-07-31T12:08:15;6.03;;;2.95;;
79646;SDS011;69119;41.718;21.786;2023-07-31T12:10:41;9.25;;;3.92;;
79646;SDS011;69119;41.718;21.786;2023-07-31T12:13:19;5.25;;;2.97;;
79646;SDS011;69119;41.718;21.786;2023-07-31T12:15:45;4.63;;;1.90;;
79646;SDS011;69119;41.718;21.786;2023-07-31T12:18:12;4.50;;;1.83;;
79646;SDS011;69119;41.718;21.786;2023-07-31T12:20:45;6.38;;;3.58;;
79646;SDS011;69119;41.718;21.786;2023-07-31T12:23:18;5.88;;;2.55;;
79646;SDS011;69119;41.718;21.786;2023-07-31T12:25:59;4.95;;;2.78;;
79646;SDS011;69119;41.718;21.786;2023-07-31T12:28:25;5.70;;;2.63;;
79646;SDS011;69119;41.718;21.786;2023-07-31T12:30:51;5.43;;;1.90;;
79646;SDS011;69119;41.718;21.786;2023-07-31T12:33:22;6.82;;;3.63;;
79646;SDS011;69119;41.718;21.786;2023-07-31T12:35:48;5.90;;;3.88;;
79646;SDS011;69119;41.718;21.786;2023-07-31T12:38:14;6.85;;;3.80;;
79646;SDS011;69119;41.718;21.786;2023-07-31T12:40:41;6.22;;;3.80;;
79646;SDS011;69119;41.718;21.786;2023-07-31T12:43:07;6.28;;;4.03;;
79646;SDS011;69119;41.718;21.786;2023-07-31T12:45:34;6.28;;;3.20;;
79646;SDS011;69119;41.718;21.786;2023-07-31T12:48:00;5.97;;;3.45;;
79646;SDS011;69119;41.718;21.786;2023-07-31T12:50:27;7.25;;;4.32;;
79646;SDS011;69119;41.718;21.786;2023-07-31T12:52:53;7.03;;;3.60;;
79646;SDS011;69119;41.718;21.786;2023-07-31T12:55:20;6.78;;;3.20;;
79646;SDS011;69119;41.718;21.786;2023-07-31T12:57:46;7.68;;;5.35;;
79646;SDS011;69119;41.718;21.786;2023-07-31T13:00:13;6.05;;;3.53;;
79646;SDS011;69119;41.718;21.786;2023-07-31T13:02:39;7.18;;;4.03;;
79646;SDS011;69119;41.718;21.786;2023-07-31T13:05:05;10.40;;;5.57;;
79646;SDS011;69119;41.718;21.786;2023-07-31T13:07:31;8.55;;;4.90;;
79646;SDS011;69119;41.718;21.786;2023-07-31T13:09:57;7.70;;;5.82;;
79646;SDS011;69119;41.718;21.786;2023-07-31T13:12:23;7.75;;;5.32;;
79646;SDS011;69119;41.718;21.786;2023-07-31T13:14:50;7.53;;;4.15;;
79646;SDS011;69119;41.718;21.786;2023-07-31T13:17:17;7.30;;;4.35;;
79646;SDS011;69119;41.718;21.786;2023-07-31T13:19:44;7.95;;;5.05;;
79646;SDS011;69119;41.718;21.786;2023-07-31T13:22:10;7.40;;;4.30;;
79646;SDS011;69119;41.718;21.786;2023-07-31T13:24:36;7.43;;;5.13;;
79646;SDS011;69119;41.718;21.786;2023-07-31T13:27:02;8.43;;;6.00;;
79646;SDS011;69119;41.718;21.786;2023-07-31T13:29:29;7.72;;;6.38;;
79646;SDS011;69119;41.718;21.786;2023-07-31T13:31:55;6.60;;;3.45;;
79646;SDS011;69119;41.718;21.786;2023-07-31T13:34:21;8.05;;;4.63;;
79646;SDS011;69119;41.718;21.786;2023-07-31T13:36:47;8.25;;;5.75;;
79646;SDS011;69119;41.718;21.786;2023-07-31T13:39:13;8.05;;;6.00;;
79646;SDS011;69119;41.718;21.786;2023-07-31T13:41:39;7.65;;;5.82;;
79646;SDS011;69119;41.718;21.786;2023-07-31T13:44:05;7.85;;;4.90;;
79646;SDS011;69119;41.718;21.786;2023-07-31T13:46:31;9.85;;;7.00;;
79646;SDS011;69119;41.718;21.786;2023-07-31T13:48:58;8.65;;;6.82;;
79646;SDS011;69119;41.718;21.786;2023-07-31T13:51:24;9.40;;;7.07;;
79646;SDS011;69119;41.718;21.786;2023-07-31T13:53:52;10.50;;;5.90;;
79646;SDS011;69119;41.718;21.786;2023-07-31T13:56:18;9.48;;;5.38;;
79646;SDS011;69119;41.718;21.786;2023-07-31T13:58:44;8.45;;;5.53;;
79646;SDS011;69119;41.718;21.786;2023-07-31T14:01:10;7.90;;;4.10;;
79646;SDS011;69119;41.718;21.786;2023-07-31T14:03:36;7.80;;;5.40;;
79646;SDS011;69119;41.718;21.786;2023-07-31T14:06:02;6.97;;;3.75;;
79646;SDS011;69119;41.718;21.786;2023-07-31T14:08:29;6.63;;;4.38;;
79646;SDS011;69119;41.718;21.786;2023-07-31T14:10:56;7.57;;;5.15;;
79646;SDS011;69119;41.718;21.786;2023-07-31T14:13:22;8.70;;;5.28;;
79646;SDS011;69119;41.718;21.786;2023-07-31T14:15:48;7.03;;;4.97;;
79646;SDS011;69119;41.718;21.786;2023-07-31T14:18:14;7.45;;;2.88;;
79646;SDS011;69119;41.718;21.786;2023-07-31T14:20:40;6.60;;;3.78;;
79646;SDS011;69119;41.718;21.786;2023-07-31T14:23:06;6.50;;;3.35;;
79646;SDS011;69119;41.718;21.786;2023-07-31T14:25:32;6.55;;;3.95;;
79646;SDS011;69119;41.718;21.786;2023-07-31T14:27:58;6.38;;;3.63;;
79646;SDS011;69119;41.718;21.786;2023-07-31T14:30:24;7.55;;;4.20;;
79646;SDS011;69119;41.718;21.786;2023-07-31T14:32:50;6.95;;;4.43;;
79646;SDS011;69119;41.718;21.786;2023-07-31T14:35:16;7.45;;;3.13;;
79646;SDS011;69119;41.718;21.786;2023-07-31T14:37:43;6.32;;;2.90;;
79646;SDS011;69119;41.718;21.786;2023-07-31T14:40:11;7.93;;;3.67;;
79646;SDS011;69119;41.718;21.786;2023-07-31T14:42:38;6.47;;;4.07;;
79646;SDS011;69119;41.718;21.786;2023-07-31T14:45:06;8.20;;;4.07;;
79646;SDS011;69119;41.718;21.786;2023-07-31T14:47:32;8.90;;;6.88;;
79646;SDS011;69119;41.718;21.786;2023-07-31T14:49:59;8.43;;;6.05;;
79646;SDS011;69119;41.718;21.786;2023-07-31T14:52:26;6.55;;;4.22;;
79646;SDS011;69119;41.718;21.786;2023-07-31T14:54:52;6.80;;;3.90;;
79646;SDS011;69119;41.718;21.786;2023-07-31T14:57:18;6.80;;;4.15;;
79646;SDS011;69119;41.718;21.786;2023-07-31T14:59:44;6.78;;;3.60;;
79646;SDS011;69119;41.718;21.786;2023-07-31T15:02:11;7.18;;;4.22;;
79646;SDS011;69119;41.718;21.786;2023-07-31T15:04:37;7.60;;;5.07;;
79646;SDS011;69119;41.718;21.786;2023-07-31T15:07:03;7.85;;;5.35;;
79646;SDS011;69119;41.718;21.786;2023-07-31T15:09:29;7.28;;;4.70;;
79646;SDS011;69119;41.718;21.786;2023-07-31T15:11:56;9.07;;;5.97;;
79646;SDS011;69119;41.718;21.786;2023-07-31T15:14:22;8.65;;;4.80;;
79646;SDS011;69119;41.718;21.786;2023-07-31T15:16:48;8.15;;;5.10;;
79646;SDS011;69119;41.718;21.786;2023-07-31T15:19:15;8.77;;;3.92;;
79646;SDS011;69119;41.718;21.786;2023-07-31T15:21:41;7.75;;;3.80;;
79646;SDS011;69119;41.718;21.786;2023-07-31T15:24:07;6.50;;;3.10;;
79646;SDS011;69119;41.718;21.786;2023-07-31T15:26:33;7.57;;;5.18;;
79646;SDS011;69119;41.718;21.786;2023-07-31T15:29:03;6.78;;;4.13;;
79646;SDS011;69119;41.718;21.786;2023-07-31T15:31:34;6.80;;;4.22;;
79646;SDS011;69119;41.718;21.786;2023-07-31T15:34:00;6.10;;;3.55;;
79646;SDS011;69119;41.718;21.786;2023-07-31T15:36:26;6.93;;;3.38;;
79646;SDS011;69119;41.718;21.786;2023-07-31T15:38:52;6.43;;;3.75;;
79646;SDS011;69119;41.718;21.786;2023-07-31T15:41:18;6.60;;;4.38;;
79646;SDS011;69119;41.718;21.786;2023-07-31T15:43:44;6.70;;;4.25;;
79646;SDS011;69119;41.718;21.786;2023-07-31T15:46:10;6.35;;;3.83;;
79646;SDS011;69119;41.718;21.786;2023-07-31T15:48:37;6.28;;;4.25;;
79646;SDS011;69119;41.718;21.786;2023-07-31T15:51:03;6.30;;;3.90;;
79646;SDS011;69119;41.718;21.786;2023-07-31T15:53:29;8.15;;;4.78;;
79646;SDS011;69119;41.718;21.786;2023-07-31T15:55:56;6.68;;;3.38;;
79646;SDS011;69119;41.718;21.786;2023-07-31T15:58:22;8.30;;;4.32;;
79646;SDS011;69119;41.718;21.786;2023-07-31T16:00:48;6.38;;;3.08;;